To NAV CANADA Home Page Login to a new session Search on AWWS site Feedback and Comments Disclaimer Vers la page française équivalente Tips FAQ What's new on the site To the Forecasts and Observations / NOTAM section To "File a Flight Plan" website Publications and other links Update of the User's profile FIC Telephone Numbers My Weather Data Folder Route Weather Data Regional Weather Data Local Weather Data To the Forecasts and Observations / NOTAM section
Request Generated 05/25/2017 at 01:17:11 UTC . Weather information available at that time is displayed.

METAR/TAF

MONTREAL/ST-HUBERT/QC    (show WxCam)

METAR CYHU 250100Z AUTO 09006KT 9SM CLR 18/10 A2979 RMK SLP088
DENSITY ALT 600FT=
METAR CYHU 250000Z AUTO 07007KT 9SM SCT075 BKN096 21/10 A2977 RMK
SLP081 DENSITY ALT 900FT=
METAR CYHU 242300Z AUTO 06008KT 9SM CLR 22/11 A2975 RMK SLP076
DENSITY ALT 1100FT=

TAF CYHU 242341Z 2500/2524 06008KT P6SM FEW060 BKN220
FM250300 04008KT P6SM BKN060 BKN120 TEMPO 2503/2508 P6SM -SHRA
OVC060
BECMG 2514/2515 05012G22KT
FM251700 09018G28KT P6SM SCT050 OVC160
FM252300 10010G20KT P6SM -SHRA OVC050
RMK FCST BASED ON AUTO OBS. NXT FCST BY 250600Z=
Your time UTC time
Weather data provided by Environment Canada and NAV CANADA